Time;durP1;ratioP1;P1;durP2;ratioP2;P2;SDS_P1;SDS_P2;PMS_P1;PMS_P2;Temp;Humidity;BMP_temperature;BMP_pressure;BME280_temperature;BME280_humidity;BME280_pressure;Samples;Min_cycle;Max_cycle;Signal;HPM_P1;HPM_P2
2024/02/27 00:01:41;;;;;;;22.53;9.33;;;7.50;99.90;;;;;;5015897;28;20187;-81
2024/02/27 00:04:08;;;;;;;26.70;9.10;;;7.50;99.90;;;;;;4998188;28;20170;-82
2024/02/27 00:06:34;;;;;;;21.90;8.88;;;7.50;99.90;;;;;;5015514;28;20245;-82
2024/02/27 00:09:00;;;;;;;25.13;8.38;;;7.40;99.90;;;;;;5015361;28;20565;-81
2024/02/27 00:11:25;;;;;;;22.90;7.93;;;7.50;99.90;;;;;;5015786;28;20225;-82
2024/02/27 00:13:51;;;;;;;21.50;8.23;;;7.50;99.90;;;;;;5015902;28;20508;-82
2024/02/27 00:16:18;;;;;;;23.57;8.47;;;7.50;99.90;;;;;;4998114;28;20272;-81
2024/02/27 00:18:44;;;;;;;21.83;7.80;;;7.50;99.90;;;;;;4998317;28;20453;-82
2024/02/27 00:21:10;;;;;;;25.23;8.87;;;7.40;99.90;;;;;;5015898;28;20197;-82
2024/02/27 00:23:36;;;;;;;22.83;9.10;;;7.40;99.90;;;;;;5015943;28;20930;-82
2024/02/27 00:26:02;;;;;;;22.87;8.60;;;7.40;99.90;;;;;;5016021;28;20771;-82
2024/02/27 00:28:28;;;;;;;23.67;8.40;;;7.40;99.90;;;;;;4998502;28;20651;-81
2024/02/27 00:30:54;;;;;;;22.10;9.60;;;7.40;99.90;;;;;;5016079;28;20273;-81
2024/02/27 00:33:19;;;;;;;22.10;9.20;;;7.40;99.90;;;;;;4998087;28;20202;-82
2024/02/27 00:35:45;;;;;;;22.10;9.00;;;7.40;99.90;;;;;;5015643;28;20253;-82
2024/02/27 00:38:11;;;;;;;25.33;10.13;;;7.40;99.90;;;;;;5016041;28;20195;-82
2024/02/27 00:40:37;;;;;;;25.53;10.13;;;7.40;99.90;;;;;;5015945;28;20191;-82
2024/02/27 00:43:03;;;;;;;24.90;10.30;;;7.40;99.90;;;;;;5015658;28;20159;-82
2024/02/27 00:45:29;;;;;;;22.85;10.07;;;7.30;99.90;;;;;;5015853;28;20201;-83
2024/02/27 00:47:57;;;;;;;24.83;11.33;;;7.40;99.90;;;;;;5015647;28;20163;-82
2024/02/27 00:50:23;;;;;;;24.08;10.35;;;7.40;99.90;;;;;;5016414;28;20560;-82
2024/02/27 00:52:49;;;;;;;26.08;10.85;;;7.30;99.90;;;;;;5016180;28;20516;-82
2024/02/27 00:55:16;;;;;;;29.23;11.00;;;7.30;99.90;;;;;;5016513;28;20173;-82
2024/02/27 00:57:41;;;;;;;25.40;10.80;;;7.30;99.90;;;;;;5016565;28;20909;-82
2024/02/27 01:00:08;;;;;;;24.80;10.90;;;7.20;99.90;;;;;;5016191;28;20194;-83
2024/02/27 01:02:41;;;;;;;27.83;11.02;;;7.30;99.90;;;;;;5016717;28;20254;-82
2024/02/27 01:05:07;;;;;;;31.00;12.48;;;7.30;99.90;;;;;;5016907;28;20223;-82
2024/02/27 01:07:33;;;;;;;25.17;11.00;;;7.30;99.90;;;;;;5019393;28;20166;-83
2024/02/27 01:10:00;;;;;;;30.70;12.37;;;7.30;99.90;;;;;;5000994;28;20265;-83
2024/02/27 01:12:25;;;;;;;28.27;12.68;;;7.30;99.90;;;;;;5022014;28;20492;-83
2024/02/27 01:14:51;;;;;;;26.80;12.63;;;7.30;99.90;;;;;;5021929;28;20655;-83
2024/02/27 01:17:17;;;;;;;25.87;11.90;;;7.30;99.90;;;;;;5022386;28;20190;-83
2024/02/27 01:19:43;;;;;;;28.10;13.40;;;7.20;99.90;;;;;;5020992;28;20595;-83
2024/02/27 01:22:09;;;;;;;30.90;14.00;;;7.20;99.90;;;;;;5003810;28;20193;-83
2024/02/27 01:24:34;;;;;;;27.77;14.47;;;7.20;99.90;;;;;;5021719;28;20190;-83
2024/02/27 01:27:00;;;;;;;27.90;14.30;;;7.20;99.90;;;;;;5021372;28;20166;-83
2024/02/27 01:29:26;;;;;;;26.67;11.40;;;7.10;99.90;;;;;;5021332;28;20201;-83
2024/02/27 01:31:53;;;;;;;29.40;14.50;;;7.10;99.90;;;;;;5021442;28;20782;-83
2024/02/27 01:34:19;;;;;;;33.70;14.55;;;7.10;99.90;;;;;;5021888;28;20170;-83
2024/02/27 01:36:45;;;;;;;29.77;14.87;;;7.10;99.90;;;;;;5022501;28;20177;-83
2024/02/27 01:39:11;;;;;;;32.38;14.98;;;7.10;99.90;;;;;;5003511;28;20502;-83
2024/02/27 01:41:39;;;;;;;30.40;14.93;;;7.20;99.90;;;;;;5021549;28;20563;-83
2024/02/27 01:44:06;;;;;;;31.48;14.30;;;7.10;99.90;;;;;;5021215;28;20159;-83
2024/02/27 01:46:32;;;;;;;29.02;14.65;;;7.10;99.90;;;;;;5021833;28;20162;-83
2024/02/27 01:48:58;;;;;;;27.83;14.30;;;7.10;99.90;;;;;;5003387;28;20548;-83
2024/02/27 01:51:25;;;;;;;37.50;15.15;;;7.10;99.90;;;;;;5020737;28;20449;-83
2024/02/27 01:53:54;;;;;;;28.55;14.15;;;7.10;99.90;;;;;;5020766;28;20233;-83
2024/02/27 01:56:20;;;;;;;31.83;14.43;;;7.10;99.90;;;;;;5021242;28;20167;-83
2024/02/27 01:58:47;;;;;;;28.80;14.20;;;7.10;99.90;;;;;;5021433;28;20567;-83
2024/02/27 02:01:14;;;;;;;31.50;15.75;;;7.20;99.90;;;;;;5020986;28;20175;-83
2024/02/27 02:03:41;;;;;;;28.27;14.70;;;7.20;99.90;;;;;;5020789;28;20169;-83
2024/02/27 02:06:07;;;;;;;32.53;15.10;;;7.20;99.90;;;;;;5020909;28;20666;-83
2024/02/27 02:08:34;;;;;;;28.00;14.07;;;7.20;99.90;;;;;;5021068;28;20205;-83
2024/02/27 02:11:05;;;;;;;37.05;14.05;;;7.10;99.90;;;;;;5020285;28;20210;-83
2024/02/27 02:13:32;;;;;;;32.80;15.45;;;7.10;99.90;;;;;;5003176;28;20170;-83
2024/02/27 02:15:58;;;;;;;33.58;13.55;;;7.20;99.90;;;;;;5020699;28;20213;-82
2024/02/27 02:18:23;;;;;;;31.93;14.77;;;7.10;99.90;;;;;;5018603;28;20667;-82
2024/02/27 02:20:49;;;;;;;35.70;15.80;;;7.10;99.90;;;;;;5018700;28;20429;-82
2024/02/27 02:23:15;;;;;;;30.93;16.10;;;7.10;99.90;;;;;;5018136;28;20185;-82
2024/02/27 02:25:41;;;;;;;36.57;17.03;;;7.10;99.90;;;;;;5001394;28;20166;-82
2024/02/27 02:28:07;;;;;;;32.38;14.57;;;7.00;99.90;;;;;;5018307;28;20170;-82
2024/02/27 02:30:33;;;;;;;33.50;14.40;;;7.10;99.90;;;;;;5018725;28;20221;-82
2024/02/27 02:32:59;;;;;;;33.03;15.30;;;7.00;99.90;;;;;;5018172;28;20217;-82
2024/02/27 02:35:24;;;;;;;32.60;15.50;;;7.00;99.90;;;;;;5018509;28;20947;-82
2024/02/27 02:37:50;;;;;;;36.50;15.97;;;7.00;99.90;;;;;;5000337;28;20175;-82
2024/02/27 02:40:17;;;;;;;35.53;15.73;;;7.00;99.90;;;;;;5000347;28;20548;-83
2024/02/27 02:42:43;;;;;;;33.30;16.65;;;7.00;99.90;;;;;;5018763;28;20402;-82
2024/02/27 02:45:10;;;;;;;36.00;15.52;;;7.00;99.90;;;;;;5018210;28;20197;-82
2024/02/27 02:47:36;;;;;;;36.08;16.90;;;7.00;99.90;;;;;;5017360;28;20163;-82
2024/02/27 02:50:02;;;;;;;34.90;15.47;;;7.00;99.90;;;;;;5018264;28;20334;-82
2024/02/27 02:52:28;;;;;;;41.35;18.30;;;7.00;99.90;;;;;;5017536;28;20182;-82
2024/02/27 02:54:53;;;;;;;34.83;16.67;;;7.00;99.90;;;;;;5000605;28;20178;-82
2024/02/27 02:57:19;;;;;;;35.77;16.93;;;7.00;99.90;;;;;;5000209;28;20178;-82
2024/02/27 02:59:45;;;;;;;32.70;16.17;;;7.00;99.90;;;;;;4999584;28;20190;-81
2024/02/27 03:02:11;;;;;;;37.65;15.77;;;6.90;99.90;;;;;;5017475;28;20233;-82
2024/02/27 03:04:37;;;;;;;33.67;15.83;;;7.00;99.90;;;;;;4999892;28;20236;-82
2024/02/27 03:07:03;;;;;;;34.13;17.00;;;6.90;99.90;;;;;;5017779;28;20409;-82
2024/02/27 03:09:31;;;;;;;35.20;18.43;;;6.90;99.90;;;;;;4999792;28;20748;-82
2024/02/27 03:11:58;;;;;;;39.95;18.25;;;7.00;99.90;;;;;;5017367;28;20405;-82
2024/02/27 03:14:24;;;;;;;36.83;16.67;;;7.00;99.90;;;;;;5017242;28;20177;-82
2024/02/27 03:16:50;;;;;;;32.47;15.90;;;6.90;99.90;;;;;;4999814;28;20170;-82
2024/02/27 03:19:15;;;;;;;41.57;19.10;;;6.90;99.90;;;;;;5017121;28;20231;-81
2024/02/27 03:21:41;;;;;;;32.53;15.60;;;6.90;99.90;;;;;;4999511;28;20437;-82
2024/02/27 03:24:07;;;;;;;39.93;17.57;;;6.90;99.90;;;;;;5016927;28;20190;-82
2024/02/27 03:26:34;;;;;;;37.88;19.00;;;6.90;99.90;;;;;;5017796;28;20163;-82
2024/02/27 03:28:59;;;;;;;39.17;18.25;;;6.90;99.90;;;;;;5020233;28;20167;-83
2024/02/27 03:31:25;;;;;;;37.50;18.17;;;6.80;99.90;;;;;;5000703;28;20198;-82
2024/02/27 03:33:51;;;;;;;38.07;18.10;;;6.80;99.90;;;;;;5018791;28;20221;-83
2024/02/27 03:36:16;;;;;;;40.30;20.73;;;6.70;99.90;;;;;;5018227;28;20167;-83
2024/02/27 03:38:43;;;;;;;39.53;18.27;;;6.70;99.90;;;;;;5018092;28;20197;-82
2024/02/27 03:41:15;;;;;;;37.47;18.55;;;6.70;99.90;;;;;;5018146;28;20182;-83
2024/02/27 03:43:42;;;;;;;37.17;17.90;;;6.70;99.90;;;;;;5018651;28;20162;-83
2024/02/27 03:46:10;;;;;;;42.20;18.25;;;6.60;99.90;;;;;;5018545;28;20159;-82
2024/02/27 03:48:36;;;;;;;40.85;19.40;;;6.70;99.90;;;;;;5018181;28;20232;-82
2024/02/27 03:51:03;;;;;;;38.57;19.10;;;6.70;99.90;;;;;;5017918;28;20202;-82
2024/02/27 03:53:32;;;;;;;43.85;19.60;;;6.80;99.90;;;;;;5018421;28;20171;-83
2024/02/27 03:55:57;;;;;;;38.95;18.02;;;6.80;99.90;;;;;;5018075;28;20175;-82
2024/02/27 03:58:23;;;;;;;41.47;20.30;;;6.80;99.90;;;;;;5017688;28;20200;-82
2024/02/27 04:00:50;;;;;;;37.10;19.40;;;6.70;99.90;;;;;;5018122;28;20424;-82
2024/02/27 04:03:16;;;;;;;41.25;18.83;;;6.70;99.90;;;;;;5000405;28;20202;-83
2024/02/27 04:05:41;;;;;;;40.77;18.03;;;6.70;99.90;;;;;;5018057;28;20170;-82
2024/02/27 04:08:10;;;;;;;42.70;18.20;;;6.70;99.90;;;;;;5017889;28;20241;-82
2024/02/27 04:10:36;;;;;;;34.97;16.83;;;6.70;99.90;;;;;;5000263;28;20202;-82
2024/02/27 04:13:03;;;;;;;38.85;17.58;;;6.80;99.90;;;;;;5000348;28;20213;-82
2024/02/27 04:15:28;;;;;;;41.05;18.77;;;6.80;99.90;;;;;;5018189;28;20171;-83
2024/02/27 04:17:55;;;;;;;37.10;17.97;;;6.80;99.90;;;;;;5000091;28;20536;-83
2024/02/27 04:20:21;;;;;;;38.53;18.08;;;6.80;99.90;;;;;;5017048;28;20182;-83
2024/02/27 04:22:47;;;;;;;37.25;17.58;;;6.70;99.90;;;;;;5018394;28;20158;-83
2024/02/27 04:25:13;;;;;;;40.95;19.58;;;6.70;99.90;;;;;;5018049;28;20174;-83
2024/02/27 04:27:39;;;;;;;41.47;18.13;;;6.70;99.90;;;;;;5000591;28;20166;-83
2024/02/27 04:30:06;;;;;;;35.55;17.60;;;6.70;99.90;;;;;;5017353;28;20794;-83
2024/02/27 04:32:32;;;;;;;38.70;19.45;;;6.70;99.90;;;;;;5017544;28;20174;-82
2024/02/27 04:34:58;;;;;;;38.93;18.03;;;6.70;99.90;;;;;;5017429;28;20579;-82
2024/02/27 04:37:24;;;;;;;39.10;18.40;;;6.70;99.90;;;;;;4999764;28;20842;-83
2024/02/27 04:39:51;;;;;;;38.20;18.37;;;6.70;99.90;;;;;;5015495;28;20222;-82
2024/02/27 04:42:21;;;;;;;36.30;17.42;;;6.70;99.90;;;;;;4997935;28;20574;-81
2024/02/27 04:44:47;;;;;;;35.75;16.02;;;6.70;99.90;;;;;;5015761;28;20165;-81
2024/02/27 04:47:15;;;;;;;35.10;16.70;;;6.70;99.90;;;;;;5019214;28;20636;-82
2024/02/27 04:49:41;;;;;;;37.45;17.98;;;6.70;99.90;;;;;;5001758;28;20257;-81
2024/02/27 04:52:07;;;;;;;35.83;18.10;;;6.70;99.90;;;;;;5019142;28;20260;-81
2024/02/27 04:54:35;;;;;;;33.47;16.57;;;6.70;99.90;;;;;;5019514;28;20221;-81
2024/02/27 04:57:00;;;;;;;35.25;16.88;;;6.70;99.90;;;;;;5019174;28;20270;-82
2024/02/27 04:59:26;;;;;;;37.93;18.10;;;6.80;99.90;;;;;;5019420;28;20222;-82
2024/02/27 05:01:51;;;;;;;36.37;16.77;;;6.70;99.90;;;;;;5001645;28;20186;-82
2024/02/27 05:04:17;;;;;;;35.20;16.13;;;6.80;99.90;;;;;;5019495;28;20653;-81
2024/02/27 05:06:43;;;;;;;39.83;17.67;;;6.70;99.90;;;;;;5018897;28;20195;-82
2024/02/27 05:09:09;;;;;;;35.70;17.90;;;6.70;99.90;;;;;;5001667;28;20173;-82
2024/02/27 05:11:35;;;;;;;39.33;16.88;;;6.70;99.90;;;;;;5019107;28;20190;-82
2024/02/27 05:14:01;;;;;;;35.93;16.53;;;6.70;99.90;;;;;;5019152;28;20167;-82
2024/02/27 05:16:26;;;;;;;38.40;17.40;;;6.80;99.90;;;;;;5018658;28;20666;-81
2024/02/27 05:18:52;;;;;;;35.30;16.23;;;6.70;99.90;;;;;;5018744;28;20193;-82
2024/02/27 05:21:21;;;;;;;36.20;16.90;;;6.80;99.90;;;;;;5018508;28;20978;-82
2024/02/27 05:23:47;;;;;;;35.95;17.48;;;6.80;99.90;;;;;;5018853;28;20170;-82
2024/02/27 05:26:14;;;;;;;33.92;16.27;;;6.80;99.90;;;;;;5018924;28;20185;-81
2024/02/27 05:28:40;;;;;;;33.40;16.88;;;6.70;99.90;;;;;;5001846;28;20174;-81
2024/02/27 05:31:26;;;;;;;35.22;15.38;;;6.70;99.90;;;;;;5001026;28;20194;-82
2024/02/27 05:33:53;;;;;;;35.72;16.35;;;6.80;99.90;;;;;;5001694;28;20253;-82
2024/02/27 05:36:20;;;;;;;35.90;17.17;;;6.80;99.90;;;;;;5001192;28;20170;-82
2024/02/27 05:38:46;;;;;;;41.97;17.80;;;6.80;99.90;;;;;;5000767;28;20571;-81
2024/02/27 05:41:12;;;;;;;35.03;17.20;;;6.70;99.90;;;;;;5018278;28;20189;-82
2024/02/27 05:43:38;;;;;;;36.87;17.50;;;6.60;99.90;;;;;;5000712;28;20166;-81
2024/02/27 05:46:05;;;;;;;43.70;19.05;;;6.60;99.90;;;;;;5018019;28;20421;-81
2024/02/27 05:48:33;;;;;;;38.22;17.73;;;6.70;99.90;;;;;;5018409;28;20170;-82
2024/02/27 05:50:59;;;;;;;35.03;16.30;;;6.70;99.90;;;;;;5020086;28;20774;-82
2024/02/27 05:53:29;;;;;;;38.30;18.90;;;6.70;99.90;;;;;;5019676;28;20206;-82
2024/02/27 05:55:55;;;;;;;42.55;16.70;;;6.60;99.90;;;;;;5020329;28;20162;-83
2024/02/27 05:58:23;;;;;;;36.30;17.20;;;6.50;99.90;;;;;;5019430;28;20190;-82
2024/02/27 06:00:52;;;;;;;37.92;17.88;;;6.50;99.90;;;;;;5019549;28;20285;-82
2024/02/27 06:03:18;;;;;;;39.10;18.27;;;6.50;99.90;;;;;;5019602;28;20254;-83
2024/02/27 06:05:44;;;;;;;37.38;18.55;;;6.50;99.90;;;;;;5020214;28;20644;-82
2024/02/27 06:08:10;;;;;;;39.22;18.45;;;6.40;99.90;;;;;;5020410;28;20537;-82
2024/02/27 06:10:37;;;;;;;35.05;16.35;;;6.40;99.90;;;;;;5019283;28;20197;-82
2024/02/27 06:13:03;;;;;;;40.17;17.52;;;6.40;99.90;;;;;;5020080;28;20162;-82
2024/02/27 06:15:28;;;;;;;39.97;18.52;;;6.40;99.90;;;;;;5019834;28;20190;-82
2024/02/27 06:17:54;;;;;;;36.23;16.17;;;6.30;99.90;;;;;;5020110;28;20175;-82
2024/02/27 06:23:04;;;;;;;36.17;17.60;;;6.40;99.90;;;;;;5019643;28;20508;-82
2024/02/27 06:25:30;;;;;;;38.90;18.60;;;6.40;99.90;;;;;;5019480;28;20163;-82
2024/02/27 06:27:55;;;;;;;38.60;18.00;;;6.40;99.90;;;;;;5019571;28;20250;-82
2024/02/27 06:30:21;;;;;;;43.10;18.70;;;6.40;99.90;;;;;;5020604;28;20213;-82
2024/02/27 06:32:47;;;;;;;44.60;18.03;;;6.40;99.90;;;;;;5018434;28;20460;-81
2024/02/27 06:35:12;;;;;;;41.37;19.20;;;6.40;99.90;;;;;;5018566;28;20169;-81
2024/02/27 06:37:40;;;;;;;42.77;19.33;;;6.30;99.90;;;;;;5018260;28;20159;-81
2024/02/27 06:40:06;;;;;;;37.58;18.23;;;6.40;99.90;;;;;;5018344;28;20221;-81
2024/02/27 06:42:36;;;;;;;37.40;17.65;;;6.40;99.90;;;;;;5018190;28;20167;-82
2024/02/27 06:45:06;;;;;;;35.97;18.70;;;6.40;99.90;;;;;;5018919;28;20298;-81
2024/02/27 06:47:32;;;;;;;39.95;18.08;;;6.30;99.90;;;;;;5018619;28;20174;-82
2024/02/27 06:49:58;;;;;;;38.07;16.73;;;6.40;99.90;;;;;;5000996;28;20191;-82
2024/02/27 06:52:27;;;;;;;41.15;18.38;;;6.40;99.90;;;;;;5019104;28;20432;-81
2024/02/27 06:54:53;;;;;;;43.42;19.75;;;6.40;99.90;;;;;;5018365;28;20175;-81
2024/02/27 06:57:18;;;;;;;43.40;19.33;;;6.40;99.90;;;;;;5018576;28;20643;-81
2024/02/27 06:59:44;;;;;;;41.57;19.10;;;6.50;99.90;;;;;;5018344;28;20194;-81
2024/02/27 07:02:11;;;;;;;40.57;18.60;;;6.50;99.90;;;;;;5017317;28;20173;-81
2024/02/27 07:04:37;;;;;;;40.90;18.38;;;6.50;99.90;;;;;;5017144;28;20257;-81
2024/02/27 07:07:03;;;;;;;40.10;20.58;;;6.60;99.90;;;;;;5017397;28;20165;-80
2024/02/27 07:09:30;;;;;;;38.10;19.33;;;6.60;99.90;;;;;;5017344;28;20178;-80
2024/02/27 07:11:58;;;;;;;42.85;21.50;;;6.60;99.90;;;;;;5017315;28;20670;-81
2024/02/27 07:14:25;;;;;;;42.05;19.08;;;6.50;99.90;;;;;;4999861;28;20655;-81
2024/02/27 07:16:51;;;;;;;45.45;18.83;;;6.50;99.90;;;;;;5017767;28;20163;-80
2024/02/27 07:19:21;;;;;;;38.17;19.73;;;6.60;99.90;;;;;;4999229;28;20198;-81
2024/02/27 07:21:47;;;;;;;39.10;18.17;;;6.60;99.90;;;;;;4998898;28;21004;-80
2024/02/27 07:24:14;;;;;;;42.20;19.17;;;6.50;99.90;;;;;;5017351;28;20253;-80
2024/02/27 07:26:40;;;;;;;42.47;19.70;;;6.60;99.90;;;;;;5017357;28;20166;-80
2024/02/27 07:29:06;;;;;;;42.00;19.63;;;6.60;99.90;;;;;;4999584;28;20284;-81
2024/02/27 07:31:33;;;;;;;41.53;19.55;;;6.50;99.90;;;;;;5016617;28;20182;-81
2024/02/27 07:33:59;;;;;;;39.42;18.25;;;6.60;99.90;;;;;;5017460;28;20170;-81
2024/02/27 07:36:25;;;;;;;37.38;17.75;;;6.50;99.90;;;;;;5017194;28;20791;-81
2024/02/27 07:38:51;;;;;;;44.35;19.52;;;6.50;99.90;;;;;;5016851;28;20234;-81
2024/02/27 07:41:18;;;;;;;44.53;19.50;;;6.60;99.90;;;;;;5016846;28;20193;-81
2024/02/27 07:43:44;;;;;;;39.03;18.40;;;6.50;99.90;;;;;;5016724;28;20213;-81
2024/02/27 07:46:16;;;;;;;34.28;16.58;;;6.60;99.90;;;;;;5017085;28;20227;-80
2024/02/27 07:48:45;;;;;;;43.25;20.50;;;6.60;99.90;;;;;;5017033;28;20219;-81
2024/02/27 07:51:33;;;;;;;41.03;20.52;;;6.60;99.90;;;;;;4999058;28;20217;-82
2024/02/27 07:54:03;;;;;;;39.72;19.55;;;6.70;99.90;;;;;;5000258;28;20610;-81
2024/02/27 07:56:31;;;;;;;42.03;20.05;;;6.60;99.90;;;;;;5017327;28;20249;-81
2024/02/27 07:58:57;;;;;;;39.70;18.00;;;6.70;99.90;;;;;;5016816;28;20197;-81
2024/02/27 08:01:26;;;;;;;49.22;19.15;;;6.70;99.90;;;;;;5016560;28;20178;-81
2024/02/27 08:03:53;;;;;;;45.67;21.20;;;6.80;99.90;;;;;;5016681;28;20166;-80
2024/02/27 08:06:19;;;;;;;44.85;18.90;;;6.80;99.90;;;;;;5016429;28;20173;-81
2024/02/27 08:08:45;;;;;;;38.63;20.85;;;6.80;99.90;;;;;;4999701;28;20170;-81
2024/02/27 08:11:11;;;;;;;44.20;20.95;;;6.80;99.90;;;;;;5017749;28;20191;-81
2024/02/27 08:13:37;;;;;;;44.60;20.43;;;6.80;99.90;;;;;;5018686;28;20174;-81
2024/02/27 08:16:03;;;;;;;40.15;19.98;;;6.80;99.90;;;;;;5000176;28;20174;-82
2024/02/27 08:18:29;;;;;;;39.53;20.10;;;6.80;99.90;;;;;;5017605;28;20201;-81
2024/02/27 08:20:54;;;;;;;48.37;21.97;;;6.80;99.90;;;;;;5001220;28;20429;-81
2024/02/27 08:23:20;;;;;;;39.20;19.73;;;6.80;99.90;;;;;;5021473;28;20170;-81
2024/02/27 08:25:46;;;;;;;43.57;20.90;;;6.90;99.90;;;;;;5021440;28;20167;-82
2024/02/27 08:28:12;;;;;;;48.85;21.17;;;6.90;99.90;;;;;;5003920;28;20170;-81
2024/02/27 08:30:38;;;;;;;39.78;20.13;;;7.00;99.90;;;;;;5021080;28;20605;-81
2024/02/27 08:33:04;;;;;;;38.40;20.30;;;7.10;99.90;;;;;;5003527;28;20191;-82
2024/02/27 08:35:30;;;;;;;48.17;21.00;;;7.20;99.90;;;;;;5021509;28;20511;-81
2024/02/27 08:37:56;;;;;;;39.53;18.40;;;7.30;99.90;;;;;;5021304;28;20181;-81
2024/02/27 08:40:22;;;;;;;37.83;20.03;;;7.30;99.90;;;;;;5020894;28;20265;-81
2024/02/27 08:42:47;;;;;;;43.57;20.40;;;7.40;99.90;;;;;;5021288;28;20910;-81
2024/02/27 08:45:13;;;;;;;38.87;19.90;;;7.40;99.90;;;;;;5003385;28;20171;-81
2024/02/27 08:47:39;;;;;;;41.17;19.73;;;7.30;99.90;;;;;;5003102;28;20167;-81
2024/02/27 08:50:06;;;;;;;40.88;20.75;;;7.30;99.90;;;;;;5021218;28;20183;-81
2024/02/27 08:52:34;;;;;;;44.03;21.42;;;7.30;99.90;;;;;;5021248;28;20274;-81
2024/02/27 08:55:00;;;;;;;43.53;19.15;;;7.40;99.90;;;;;;5003087;28;20515;-81
2024/02/27 08:57:25;;;;;;;40.67;19.30;;;7.40;99.90;;;;;;5020254;28;20174;-81
2024/02/27 08:59:51;;;;;;;41.57;19.57;;;7.50;99.90;;;;;;5021249;28;20220;-81
2024/02/27 09:02:17;;;;;;;40.57;20.07;;;7.50;99.90;;;;;;5021195;28;20234;-81
2024/02/27 09:04:43;;;;;;;39.87;20.27;;;7.60;99.90;;;;;;5020764;28;20181;-81
2024/02/27 09:07:10;;;;;;;38.77;18.83;;;7.60;99.90;;;;;;5021213;28;20162;-81
2024/02/27 09:09:37;;;;;;;39.65;20.33;;;7.60;99.90;;;;;;5020546;28;20174;-81
2024/02/27 09:12:05;;;;;;;40.35;19.15;;;7.60;99.90;;;;;;5020472;28;20173;-81
2024/02/27 09:14:31;;;;;;;51.28;20.38;;;7.70;99.90;;;;;;5019954;28;20169;-81
2024/02/27 09:17:00;;;;;;;38.38;19.10;;;7.80;99.90;;;;;;5021292;28;20174;-81
2024/02/27 09:19:26;;;;;;;41.15;20.38;;;7.80;99.90;;;;;;5002947;28;20557;-81
2024/02/27 09:21:52;;;;;;;39.67;19.23;;;7.80;99.90;;;;;;5020234;28;20194;-81
2024/02/27 09:24:18;;;;;;;45.30;20.83;;;7.80;99.90;;;;;;5019705;28;20416;-81
2024/02/27 09:26:44;;;;;;;37.47;19.40;;;7.80;99.90;;;;;;5019821;28;20547;-80
2024/02/27 09:29:09;;;;;;;39.23;19.60;;;7.80;99.90;;;;;;5019284;28;20405;-81
2024/02/27 09:31:35;;;;;;;37.13;18.73;;;7.80;99.90;;;;;;5001934;28;20194;-81
2024/02/27 09:34:01;;;;;;;38.13;19.73;;;7.90;99.90;;;;;;5019435;28;20166;-81
2024/02/27 09:36:26;;;;;;;45.40;19.63;;;7.90;99.90;;;;;;5001518;28;20173;-80
2024/02/27 09:38:52;;;;;;;39.90;18.60;;;7.90;99.90;;;;;;5019331;28;20197;-81
2024/02/27 09:41:27;;;;;;;41.53;18.43;;;8.00;99.90;;;;;;5019161;28;20269;-81
2024/02/27 09:43:55;;;;;;;41.92;20.23;;;8.10;99.90;;;;;;5019672;28;20157;-80
2024/02/27 09:46:25;;;;;;;38.72;18.92;;;8.20;99.90;;;;;;5018846;28;20166;-81
2024/02/27 09:48:54;;;;;;;41.00;19.08;;;8.30;99.90;;;;;;5018960;28;20612;-81
2024/02/27 09:51:22;;;;;;;42.65;19.00;;;8.30;99.90;;;;;;5018767;28;20619;-80
2024/02/27 09:53:50;;;;;;;42.10;19.90;;;8.40;99.90;;;;;;5001443;28;20187;-81
2024/02/27 09:56:16;;;;;;;37.63;17.88;;;8.40;99.90;;;;;;5001521;28;20182;-81
2024/02/27 09:58:45;;;;;;;43.57;18.00;;;8.60;99.90;;;;;;5000755;28;20198;-80
2024/02/27 10:01:14;;;;;;;36.95;17.52;;;8.60;99.90;;;;;;5018830;28;20435;-81
2024/02/27 10:03:47;;;;;;;39.60;19.83;;;8.70;99.90;;;;;;5001797;28;20532;-81
2024/02/27 10:06:15;;;;;;;36.25;17.02;;;8.80;99.90;;;;;;5019567;28;20151;-81
2024/02/27 10:08:53;;;;;;;35.80;17.25;;;8.80;99.90;;;;;;5018920;28;20217;-80
2024/02/27 10:11:20;;;;;;;37.72;18.17;;;8.90;99.90;;;;;;5000765;28;20216;-80
2024/02/27 10:13:46;;;;;;;39.78;19.77;;;9.10;99.90;;;;;;5017829;28;20539;-80
2024/02/27 10:16:19;;;;;;;39.33;17.40;;;9.10;99.90;;;;;;5018654;28;20224;-81
2024/02/27 10:18:45;;;;;;;38.28;18.42;;;9.40;99.90;;;;;;5018620;28;20781;-81
2024/02/27 10:21:11;;;;;;;41.07;17.60;;;9.50;99.90;;;;;;5000515;28;20198;-80
2024/02/27 10:23:36;;;;;;;35.93;17.43;;;9.70;99.90;;;;;;5018598;28;20174;-80
2024/02/27 10:26:10;;;;;;;40.07;17.77;;;9.70;99.90;;;;;;5000984;28;20544;-81
2024/02/27 10:28:36;;;;;;;34.70;17.08;;;9.80;99.90;;;;;;5018505;28;20592;-81
2024/02/27 10:31:11;;;;;;;35.90;16.67;;;10.00;99.90;;;;;;5018007;28;20199;-80
2024/02/27 10:33:43;;;;;;;40.65;18.10;;;10.00;99.90;;;;;;5018226;28;20166;-80
2024/02/27 10:36:09;;;;;;;35.60;16.30;;;9.90;99.90;;;;;;5019914;28;20640;-81
2024/02/27 10:38:35;;;;;;;36.43;17.50;;;9.80;99.90;;;;;;5002433;28;20285;-81
2024/02/27 10:41:01;;;;;;;42.90;18.30;;;9.90;99.90;;;;;;5018561;28;20424;-81
2024/02/27 10:43:33;;;;;;;35.45;16.25;;;10.00;99.90;;;;;;5018241;28;20397;-81
2024/02/27 10:45:59;;;;;;;36.75;17.40;;;9.70;99.90;;;;;;5018450;28;20174;-81
2024/02/27 10:48:29;;;;;;;39.73;18.63;;;9.70;99.90;;;;;;5018864;28;20536;-81
2024/02/27 10:50:55;;;;;;;36.45;16.55;;;9.70;99.90;;;;;;5001371;28;20352;-81
2024/02/27 10:53:26;;;;;;;35.77;16.77;;;9.60;99.90;;;;;;5018908;28;20580;-81
2024/02/27 10:55:53;;;;;;;37.15;17.90;;;9.60;99.90;;;;;;5018989;28;20396;-81
2024/02/27 10:58:21;;;;;;;40.20;18.05;;;9.40;99.90;;;;;;5001179;28;20202;-81
2024/02/27 11:00:46;;;;;;;38.25;17.98;;;9.30;99.90;;;;;;5018404;28;20183;-81
2024/02/27 11:03:14;;;;;;;38.30;19.27;;;9.20;99.90;;;;;;5018370;28;20181;-81
2024/02/27 11:05:43;;;;;;;37.22;17.10;;;9.10;99.90;;;;;;5000379;28;20171;-81
2024/02/27 11:08:10;;;;;;;35.20;18.17;;;9.30;99.90;;;;;;5018615;28;20174;-81
2024/02/27 11:10:38;;;;;;;34.78;16.45;;;9.40;99.90;;;;;;5018380;28;20550;-81
2024/02/27 11:13:07;;;;;;;37.88;17.33;;;9.50;99.90;;;;;;5000306;28;20174;-81
2024/02/27 11:15:33;;;;;;;36.00;17.80;;;9.50;99.90;;;;;;5018263;28;20174;-81
2024/02/27 11:18:02;;;;;;;34.83;15.80;;;9.70;99.90;;;;;;5000177;28;20167;-81
2024/02/27 11:20:29;;;;;;;34.83;15.32;;;9.50;99.90;;;;;;5018400;28;20198;-81
2024/02/27 11:22:56;;;;;;;38.47;17.08;;;9.50;99.90;;;;;;5018012;28;20177;-81
2024/02/27 11:25:22;;;;;;;35.92;16.27;;;9.40;99.90;;;;;;5018017;28;20167;-81
2024/02/27 11:27:53;;;;;;;32.30;15.57;;;9.40;99.90;;;;;;5000206;28;20174;-81
2024/02/27 11:30:21;;;;;;;35.13;15.93;;;9.40;99.90;;;;;;5018138;28;20187;-81
2024/02/27 11:32:48;;;;;;;37.67;17.08;;;9.60;99.90;;;;;;5000578;28;20182;-81
2024/02/27 11:35:18;;;;;;;33.97;14.55;;;9.90;99.90;;;;;;5017615;28;20173;-81
2024/02/27 11:37:45;;;;;;;33.70;15.82;;;10.10;99.90;;;;;;5018286;28;20508;-81
2024/02/27 11:40:12;;;;;;;35.22;15.98;;;10.10;99.90;;;;;;5017430;28;20205;-81
2024/02/27 11:42:41;;;;;;;31.33;15.00;;;10.20;99.90;;;;;;5018056;28;20188;-81
2024/02/27 11:45:15;;;;;;;39.25;17.45;;;10.30;99.90;;;;;;5017874;28;20170;-81
2024/02/27 11:47:53;;;;;;;31.60;14.90;;;10.20;99.90;;;;;;5017481;28;20166;-81
2024/02/27 11:50:37;;;;;;;36.83;16.42;;;10.20;92.10;;;;;;4999018;28;20558;-81
2024/02/27 11:53:20;;;;;;;34.22;15.93;;;10.10;53.60;;;;;;4998500;28;20587;-81
2024/02/27 11:55:53;;;;;;;33.22;14.80;;;10.10;53.60;;;;;;5015910;28;20206;-81
2024/02/27 11:58:22;;;;;;;31.90;14.70;;;10.20;49.30;;;;;;4999370;28;20163;-80
2024/02/27 12:00:49;;;;;;;37.33;16.80;;;10.10;46.00;;;;;;5015980;28;20186;-80
2024/02/27 12:03:15;;;;;;;34.88;16.00;;;10.20;47.80;;;;;;5016166;28;20163;-81
2024/02/27 12:05:46;;;;;;;37.35;17.40;;;10.10;40.20;;;;;;5016013;28;20635;-81
2024/02/27 12:08:12;;;;;;;40.85;17.88;;;10.10;53.20;;;;;;5015820;28;20147;-81
2024/02/27 12:10:38;;;;;;;34.87;16.10;;;10.10;45.80;;;;;;5015857;28;20189;-80
2024/02/27 12:13:03;;;;;;;34.07;15.17;;;10.10;51.20;;;;;;5015999;28;20515;-80
2024/02/27 12:15:29;;;;;;;34.10;14.40;;;10.20;35.90;;;;;;5016348;28;20425;-81
2024/02/27 12:17:55;;;;;;;35.10;16.30;;;10.50;53.40;;;;;;5016248;28;20216;-80
2024/02/27 12:20:20;;;;;;;36.97;15.67;;;10.90;36.50;;;;;;5016104;28;20199;-81
2024/02/27 12:22:46;;;;;;;34.50;16.03;;;11.10;16.60;;;;;;4997610;28;20166;-80
2024/02/27 12:25:15;;;;;;;36.78;14.77;;;11.10;7.70;;;;;;5016015;28;20163;-80
2024/02/27 12:27:42;;;;;;;34.97;18.13;;;11.30;20.30;;;;;;5015944;28;20186;-81
2024/02/27 12:30:11;;;;;;;32.92;16.05;;;11.30;3.90;;;;;;5015787;28;20786;-81
2024/02/27 12:32:39;;;;;;;42.90;17.45;;;11.20;10.80;;;;;;5015785;28;20169;-81
2024/02/27 12:35:10;;;;;;;36.00;17.50;;;11.10;10.70;;;;;;4997632;28;20178;-81
2024/02/27 12:37:44;;;;;;;41.05;18.25;;;11.00;1.00;;;;;;5015255;28;20165;-81